Time;durP1;ratioP1;P1;durP2;ratioP2;P2;SDS_P1;SDS_P2;PMS_P1;PMS_P2;Temp;Humidity;BMP_temperature;BMP_pressure;BME280_temperature;BME280_humidity;BME280_pressure;Samples;Min_cycle;Max_cycle;Signal;HPM_P1;HPM_P2
2021/03/16 00:00:15;;;;;;;91.05;48.28;;;;;;;1.79;75.93;99982.74;1699338;82;27625;-77
2021/03/16 00:03:02;;;;;;;84.13;46.02;;;;;;;1.79;75.97;99983.58;1729664;82;25830;-77
2021/03/16 00:05:31;;;;;;;80.80;45.08;;;;;;;1.82;75.94;99991.70;1707689;82;25713;-77
2021/03/16 00:07:58;;;;;;;83.82;45.20;;;;;;;1.79;75.91;99989.34;1730957;82;26517;-77
2021/03/16 00:10:25;;;;;;;83.17;45.63;;;;;;;1.78;76.06;99979.75;1675592;82;25796;-77
2021/03/16 00:12:52;;;;;;;82.37;46.23;;;;;;;1.79;76.02;99986.22;1710305;82;27540;-77
2021/03/16 00:15:20;;;;;;;75.83;41.73;;;;;;;1.79;75.90;99983.58;1748408;80;26101;-77
2021/03/16 00:17:47;;;;;;;83.05;41.83;;;;;;;1.80;75.97;99979.11;1742227;81;25681;-77
2021/03/16 00:20:15;;;;;;;71.25;39.38;;;;;;;1.78;75.99;99983.22;1680382;81;25844;-77
2021/03/16 00:22:42;;;;;;;77.27;40.50;;;;;;;1.75;75.96;99978.25;1727694;81;25770;-77
2021/03/16 00:25:10;;;;;;;75.80;42.55;;;;;;;1.71;75.95;99983.45;1744534;81;27333;-77
2021/03/16 00:27:37;;;;;;;83.03;44.20;;;;;;;1.63;75.93;99982.03;1712003;81;26383;-77
2021/03/16 00:30:07;;;;;;;85.05;45.28;;;;;;;1.63;76.00;99980.72;1679856;83;25823;-77
2021/03/16 00:32:34;;;;;;;108.72;51.25;;;;;;;1.64;75.92;99985.52;1722340;82;26023;-78
2021/03/16 00:35:02;;;;;;;113.88;55.45;;;;;;;1.62;75.93;99983.03;1742301;81;25851;-78
2021/03/16 00:37:29;;;;;;;124.85;57.05;;;;;;;1.59;75.84;99988.59;1745695;81;28347;-77
2021/03/16 00:39:56;;;;;;;123.13;56.08;;;;;;;1.54;75.91;99991.66;1679370;81;25852;-77
2021/03/16 00:42:23;;;;;;;121.33;57.48;;;;;;;1.55;75.93;99989.38;1687921;81;25868;-77
2021/03/16 00:44:50;;;;;;;103.55;54.00;;;;;;;1.56;75.95;99993.66;1722929;81;26679;-77
2021/03/16 00:47:18;;;;;;;107.65;52.35;;;;;;;1.58;76.10;99998.30;1746555;81;25763;-77
2021/03/16 00:49:46;;;;;;;108.72;51.63;;;;;;;1.61;76.20;99993.23;1697413;81;27553;-77
2021/03/16 00:52:13;;;;;;;101.35;51.73;;;;;;;1.62;76.19;99988.31;1725779;81;26103;-78
2021/03/16 00:54:41;;;;;;;99.07;52.00;;;;;;;1.60;76.15;99984.98;1713996;81;25414;-78
2021/03/16 00:57:08;;;;;;;96.02;48.00;;;;;;;1.60;76.24;99990.27;1746658;81;26413;-77
2021/03/16 00:59:35;;;;;;;99.85;49.95;;;;;;;1.60;76.25;99989.42;1674057;81;25832;-78
2021/03/16 01:02:02;;;;;;;99.65;50.30;;;;;;;1.59;76.24;99993.86;1688173;81;27545;-78
2021/03/16 01:04:29;;;;;;;88.65;47.60;;;;;;;1.58;76.35;99994.34;1743180;81;25859;-78
2021/03/16 01:06:56;;;;;;;88.03;47.25;;;;;;;1.60;76.43;99994.22;1743476;81;25930;-77
2021/03/16 01:09:24;;;;;;;74.30;42.30;;;;;;;1.63;76.50;99992.59;1692135;81;25868;-78
2021/03/16 01:11:53;;;;;;;81.30;43.52;;;;;;;1.65;76.53;99994.60;1724745;81;25424;-78
2021/03/16 01:14:20;;;;;;;73.22;40.55;;;;;;;1.62;76.50;99988.79;1745991;81;28268;-77
2021/03/16 01:16:47;;;;;;;85.72;42.62;;;;;;;1.62;76.57;99987.47;1741745;81;25903;-78
2021/03/16 01:19:14;;;;;;;83.75;43.42;;;;;;;1.59;76.61;99989.91;1687418;81;26009;-77
2021/03/16 01:21:41;;;;;;;88.10;44.00;;;;;;;1.61;76.73;99987.11;1735265;81;25776;-78
2021/03/16 01:24:09;;;;;;;74.65;41.60;;;;;;;1.62;76.82;99990.95;1681198;83;25890;-77
2021/03/16 01:26:36;;;;;;;80.95;43.98;;;;;;;1.61;76.82;99986.63;1742178;81;28177;-77
2021/03/16 01:29:04;;;;;;;80.12;42.13;;;;;;;1.63;76.98;99988.63;1665888;82;25855;-78
2021/03/16 01:31:32;;;;;;;79.97;41.63;;;;;;;1.62;76.97;99981.70;1743924;81;25773;-78
2021/03/16 01:33:59;;;;;;;75.70;39.35;;;;;;;1.63;77.04;99982.52;1695223;83;25773;-77
2021/03/16 01:36:26;;;;;;;78.83;42.23;;;;;;;1.60;76.99;99980.19;1726355;82;25860;-78
2021/03/16 01:38:53;;;;;;;89.55;44.40;;;;;;;1.60;77.10;99983.66;1681045;82;27598;-78
2021/03/16 01:41:20;;;;;;;81.57;41.90;;;;;;;1.61;77.13;99982.67;1730566;80;25732;-78
2021/03/16 01:43:47;;;;;;;73.17;40.03;;;;;;;1.64;77.16;99979.75;1750252;80;25973;-78
2021/03/16 01:46:17;;;;;;;72.37;39.18;;;;;;;1.67;77.21;99985.23;1769196;80;25782;-78
2021/03/16 01:48:45;;;;;;;70.70;37.50;;;;;;;1.69;77.21;99985.92;1742027;80;25736;-77
2021/03/16 01:51:12;;;;;;;75.10;39.25;;;;;;;1.68;77.24;99981.60;1781091;80;27431;-78
2021/03/16 01:53:42;;;;;;;65.90;36.42;;;;;;;1.69;77.34;99982.77;1772469;80;26426;-78
2021/03/16 01:56:11;;;;;;;72.47;37.00;;;;;;;1.71;77.35;99983.97;1723103;80;25929;-78
2021/03/16 01:58:58;;;;;;;71.20;38.20;;;;;;;1.74;77.41;99987.62;1775985;80;25792;-78
2021/03/16 02:01:45;;;;;;;68.07;38.28;;;;;;;1.75;77.42;99984.86;1752223;80;25971;-78
2021/03/16 02:04:31;;;;;;;68.42;37.55;;;;;;;1.77;77.50;99984.22;1770643;80;28437;-77
2021/03/16 02:07:26;;;;;;;67.65;38.70;;;;;;;1.80;77.51;99993.63;1736934;80;26101;-78
2021/03/16 02:10:42;;;;;;;74.30;39.90;;;;;;;1.84;77.54;99995.84;1750747;80;25857;-78
2021/03/16 02:13:54;;;;;;;70.87;39.92;;;;;;;1.81;77.35;99994.83;1747677;81;26647;-78
2021/03/16 02:17:24;;;;;;;73.30;39.95;;;;;;;1.72;77.21;99991.73;1767882;80;26103;-77
2021/03/16 02:20:29;;;;;;;77.15;40.48;;;;;;;1.68;77.42;99996.13;1732807;80;27555;-78
2021/03/16 02:23:23;;;;;;;77.60;41.95;;;;;;;1.60;77.60;99990.27;1764569;80;26623;-77
2021/03/16 02:26:38;;;;;;;73.50;40.50;;;;;;;1.58;77.72;99996.17;1763676;80;25819;-77
2021/03/16 02:29:51;;;;;;;74.58;39.75;;;;;;;1.52;77.83;99988.33;1768120;80;26401;-77
2021/03/16 02:32:38;;;;;;;64.70;36.03;;;;;;;1.42;77.90;99991.49;1764584;80;26026;-77
2021/03/16 02:35:24;;;;;;;58.78;33.55;;;;;;;1.30;78.21;99987.85;1745390;80;27549;-77
2021/03/16 02:38:12;;;;;;;66.97;34.75;;;;;;;1.23;78.69;99991.55;1739585;80;25811;-77
2021/03/16 02:41:00;;;;;;;70.67;34.75;;;;;;;1.18;78.90;99995.08;1764564;80;26248;-77
2021/03/16 02:43:45;;;;;;;59.93;34.85;;;;;;;1.18;79.27;100000.36;1729437;80;25709;-77
2021/03/16 02:46:32;;;;;;;62.10;32.17;;;;;;;1.20;79.67;100002.84;1717965;80;26042;-77
2021/03/16 02:49:18;;;;;;;67.47;35.65;;;;;;;1.18;80.03;100000.84;1768057;80;28306;-77
2021/03/16 02:52:05;;;;;;;68.83;35.78;;;;;;;1.15;80.03;100001.14;1765673;80;25981;-77
2021/03/16 02:54:51;;;;;;;63.68;32.63;;;;;;;1.15;80.49;99996.70;1725821;80;25709;-77
2021/03/16 02:57:38;;;;;;;61.55;31.90;;;;;;;1.18;81.11;99996.88;1741236;80;25704;-77
2021/03/16 03:00:25;;;;;;;55.10;29.87;;;;;;;1.24;81.68;99994.51;1768657;80;25926;-77
2021/03/16 03:03:11;;;;;;;59.10;30.72;;;;;;;1.33;81.86;99992.34;1761136;80;27520;-77
2021/03/16 03:05:58;;;;;;;59.40;33.35;;;;;;;1.41;82.18;99988.50;1739312;80;26174;-77
2021/03/16 03:08:46;;;;;;;56.63;29.85;;;;;;;1.49;82.44;99980.72;1742635;80;25754;-77
2021/03/16 03:11:32;;;;;;;47.43;26.00;;;;;;;1.56;82.24;99986.25;1739044;80;25797;-77
2021/03/16 03:14:18;;;;;;;40.80;23.65;;;;;;;1.63;82.52;99985.99;1763507;80;25808;-77
2021/03/16 03:17:06;;;;;;;47.95;25.62;;;;;;;1.73;82.89;99987.30;1728931;80;27556;-77
2021/03/16 03:19:52;;;;;;;48.95;27.00;;;;;;;1.85;82.71;99986.95;1726857;80;25908;-77
2021/03/16 03:22:50;;;;;;;46.30;25.77;;;;;;;1.96;82.47;99992.53;1781220;79;25823;-77
2021/03/16 03:25:39;;;;;;;49.08;28.02;;;;;;;2.04;82.31;99990.81;1776655;80;26737;-81
2021/03/16 03:28:27;;;;;;;43.15;25.30;;;;;;;2.08;82.42;100002.75;1776312;80;25704;-76
2021/03/16 03:31:16;;;;;;;46.18;25.77;;;;;;;2.10;82.37;100000.79;1749419;80;28403;-76
2021/03/16 03:34:02;;;;;;;48.23;26.02;;;;;;;2.14;82.27;100000.83;1757644;80;26053;-77
2021/03/16 03:36:52;;;;;;;48.60;25.75;;;;;;;2.20;82.16;100002.87;1752537;80;25765;-77
2021/03/16 03:39:38;;;;;;;49.40;27.52;;;;;;;2.27;82.07;100008.41;1774603;80;25809;-77
2021/03/16 03:42:26;;;;;;;51.80;26.90;;;;;;;2.34;82.12;100013.45;1728849;80;25758;-77
2021/03/16 03:45:14;;;;;;;51.13;27.65;;;;;;;2.39;82.07;100013.00;1780660;80;27341;-77
2021/03/16 03:48:03;;;;;;;48.58;25.72;;;;;;;2.41;81.88;100015.01;1774730;80;26179;-76
2021/03/16 03:50:54;;;;;;;49.90;26.50;;;;;;;2.41;81.77;100019.81;1740861;80;25767;-76
2021/03/16 03:53:41;;;;;;;45.88;26.60;;;;;;;2.44;81.75;100024.78;1751544;80;26420;-77
2021/03/16 03:56:29;;;;;;;50.23;26.27;;;;;;;2.47;81.74;100029.78;1781879;80;26492;-77
2021/03/16 03:59:15;;;;;;;46.18;27.05;;;;;;;2.47;81.70;100024.98;1747138;80;27519;-77
2021/03/16 04:02:01;;;;;;;44.63;24.87;;;;;;;2.44;81.64;100023.45;1737789;80;25941;-77
2021/03/16 04:04:47;;;;;;;40.73;25.57;;;;;;;2.40;81.68;100035.31;1780265;80;25843;-77
2021/03/16 04:07:35;;;;;;;48.68;27.77;;;;;;;2.34;81.73;100037.23;1781578;80;25790;-77
2021/03/16 04:10:20;;;;;;;42.08;25.02;;;;;;;2.29;81.94;100035.51;1767246;80;25762;-77
2021/03/16 04:13:06;;;;;;;47.55;26.50;;;;;;;2.23;81.94;100032.14;1739024;80;27551;-77
2021/03/16 04:15:52;;;;;;;48.83;29.02;;;;;;;2.17;81.99;100030.94;1747886;78;26055;-77
2021/03/16 04:18:39;;;;;;;46.73;26.60;;;;;;;2.14;82.12;100032.53;1749820;80;26363;-77
2021/03/16 04:21:24;;;;;;;49.48;27.77;;;;;;;2.13;82.22;100039.30;1777532;80;26398;-77
2021/03/16 04:24:10;;;;;;;50.17;27.02;;;;;;;2.13;82.44;100043.26;1747530;80;26246;-77
2021/03/16 04:26:56;;;;;;;50.65;28.62;;;;;;;2.13;82.53;100045.90;1785366;80;28247;-77
2021/03/16 04:29:41;;;;;;;49.25;28.07;;;;;;;2.17;82.63;100044.63;1748112;80;25878;-78
2021/03/16 04:32:27;;;;;;;53.83;29.20;;;;;;;2.22;82.68;100052.44;1778483;80;26398;-78
2021/03/16 04:35:13;;;;;;;52.67;29.10;;;;;;;2.29;82.62;100063.25;1750388;80;26474;-78
2021/03/16 04:37:59;;;;;;;47.00;27.98;;;;;;;2.36;82.51;100055.09;1733816;80;26542;-77
2021/03/16 04:40:45;;;;;;;52.33;29.60;;;;;;;2.43;82.41;100052.69;1780567;80;26977;-77
2021/03/16 04:43:30;;;;;;;47.60;26.55;;;;;;;2.48;82.29;100058.38;1782513;80;25778;-77
2021/03/16 04:46:17;;;;;;;52.10;27.98;;;;;;;2.54;82.21;100063.06;1739331;80;25928;-77
2021/03/16 04:49:02;;;;;;;50.92;28.73;;;;;;;2.54;82.07;100061.74;1777927;80;25764;-77
2021/03/16 04:51:48;;;;;;;50.05;29.52;;;;;;;2.57;82.03;100069.36;1744616;80;26020;-77
2021/03/16 04:54:34;;;;;;;52.00;28.23;;;;;;;2.59;82.06;100067.42;1782448;80;27487;-77
2021/03/16 04:57:19;;;;;;;46.75;26.97;;;;;;;2.61;81.95;100063.63;1737546;80;26171;-77
2021/03/16 05:00:07;;;;;;;49.77;27.32;;;;;;;2.54;81.83;100066.55;1731923;80;25805;-77
2021/03/16 05:02:53;;;;;;;46.28;27.93;;;;;;;2.53;81.92;100063.55;1751641;80;26247;-77
2021/03/16 05:05:39;;;;;;;46.85;26.35;;;;;;;2.55;82.01;100072.16;1760009;80;26309;-79
2021/03/16 05:08:25;;;;;;;48.45;26.77;;;;;;;2.55;82.02;100069.52;1745053;80;27591;-79
2021/03/16 05:11:10;;;;;;;43.10;24.67;;;;;;;2.50;81.96;100063.86;1739336;80;25804;-78
2021/03/16 05:13:56;;;;;;;45.00;25.23;;;;;;;2.43;81.76;100069.39;1756414;80;25829;-78
2021/03/16 05:16:42;;;;;;;45.60;26.05;;;;;;;2.35;81.77;100074.07;1783764;80;25776;-78
2021/03/16 05:19:28;;;;;;;44.03;26.65;;;;;;;2.28;81.87;100071.70;1741708;80;25904;-78
2021/03/16 05:22:14;;;;;;;42.62;23.00;;;;;;;2.27;82.02;100070.50;1739950;80;27534;-77
2021/03/16 05:25:00;;;;;;;45.12;25.15;;;;;;;2.22;82.22;100068.81;1751875;80;25862;-78
2021/03/16 05:27:47;;;;;;;45.48;27.17;;;;;;;2.18;82.37;100061.64;1778974;80;26428;-77
2021/03/16 05:30:32;;;;;;;50.30;27.65;;;;;;;2.16;82.43;100057.00;1738578;80;26516;-77
2021/03/16 05:33:19;;;;;;;45.05;25.40;;;;;;;2.17;82.63;100071.05;1730936;80;25697;-77
2021/03/16 05:36:06;;;;;;;45.38;26.25;;;;;;;2.19;82.85;100069.09;1755843;80;26587;-78
2021/03/16 05:38:52;;;;;;;43.85;24.70;;;;;;;2.22;83.00;100067.48;1778857;80;25792;-77
2021/03/16 05:41:40;;;;;;;48.80;27.17;;;;;;;2.26;83.13;100071.50;1746644;80;25340;-77
2021/03/16 05:44:27;;;;;;;46.85;27.80;;;;;;;2.29;83.18;100066.73;1782632;79;25907;-78
2021/03/16 05:47:14;;;;;;;49.10;27.25;;;;;;;2.35;83.19;100066.14;1781830;80;26086;-77
2021/03/16 05:50:01;;;;;;;51.65;26.33;;;;;;;2.43;83.21;100069.39;1747826;80;27603;-78
2021/03/16 05:52:48;;;;;;;49.15;26.48;;;;;;;2.49;83.14;100070.11;1732870;79;25447;-77
2021/03/16 05:55:34;;;;;;;52.08;27.07;;;;;;;2.56;83.12;100076.96;1753675;80;25857;-77
2021/03/16 05:58:23;;;;;;;47.23;27.25;;;;;;;2.60;83.02;100081.81;1780347;80;26458;-77
2021/03/16 06:01:10;;;;;;;48.15;27.60;;;;;;;2.66;82.98;100087.82;1753598;80;25811;-77
2021/03/16 06:03:55;;;;;;;51.02;28.20;;;;;;;2.73;82.96;100092.86;1732061;80;27542;-77
2021/03/16 06:06:41;;;;;;;45.73;26.12;;;;;;;2.78;82.96;100091.09;1724745;80;25939;-77
2021/03/16 06:09:27;;;;;;;44.88;24.90;;;;;;;2.83;82.86;100093.63;1778558;80;25829;-78
2021/03/16 06:12:13;;;;;;;48.78;27.35;;;;;;;2.87;82.79;100083.08;1724095;80;26450;-77
2021/03/16 06:15:15;;;;;;;44.30;26.07;;;;;;;2.90;82.70;100089.89;1734847;80;25851;-77
2021/03/16 06:18:01;;;;;;;46.05;26.10;;;;;;;2.96;82.68;100093.25;1737631;80;27355;-77
2021/03/16 06:21:01;;;;;;;47.85;26.65;;;;;;;3.00;82.77;100098.09;1777679;80;26022;-77
2021/03/16 06:23:57;;;;;;;43.83;24.92;;;;;;;3.08;82.79;100098.65;1780108;80;25693;-77
2021/03/16 06:26:48;;;;;;;42.40;24.25;;;;;;;3.14;82.84;100108.66;1755123;80;25796;-77
2021/03/16 06:29:41;;;;;;;42.17;24.05;;;;;;;3.18;82.87;100111.34;1779037;80;25775;-78
2021/03/16 06:32:36;;;;;;;46.42;25.97;;;;;;;3.18;82.84;100117.95;1766757;80;27508;-77
2021/03/16 06:35:23;;;;;;;58.42;31.20;;;;;;;3.21;82.90;100119.47;1752974;80;25422;-78
2021/03/16 06:38:11;;;;;;;68.57;33.08;;;;;;;3.25;82.79;100125.60;1766399;80;25351;-77
2021/03/16 06:41:16;;;;;;;79.62;35.17;;;;;;;3.29;82.75;100127.47;1773838;80;25767;-77
2021/03/16 06:44:07;;;;;;;83.65;35.63;;;;;;;3.31;82.74;100130.80;1769858;80;25315;-77
2021/03/16 06:46:58;;;;;;;69.35;33.78;;;;;;;3.35;82.81;100138.77;1745568;80;27558;-77
2021/03/16 06:49:43;;;;;;;56.60;30.20;;;;;;;3.36;82.93;100135.97;1733935;80;25855;-77
2021/03/16 06:52:29;;;;;;;49.30;29.15;;;;;;;3.38;82.98;100135.31;1779482;80;26554;-76
2021/03/16 06:55:16;;;;;;;48.08;28.50;;;;;;;3.44;83.16;100137.38;1776003;80;26435;-77
2021/03/16 06:58:08;;;;;;;47.55;27.60;;;;;;;3.46;83.09;100143.84;1736515;80;25823;-77
2021/03/16 07:01:10;;;;;;;41.40;25.92;;;;;;;3.44;83.15;100146.66;1756374;80;27546;-77
2021/03/16 07:03:56;;;;;;;47.55;26.82;;;;;;;3.42;83.35;100151.23;1744710;80;25925;-77
2021/03/16 07:06:43;;;;;;;43.92;25.32;;;;;;;3.41;83.48;100147.42;1769471;80;26027;-77
2021/03/16 07:09:31;;;;;;;40.48;22.67;;;;;;;3.41;83.67;100148.75;1757062;80;25725;-77
2021/03/16 07:12:20;;;;;;;39.38;23.83;;;;;;;3.42;83.83;100155.72;1732206;80;25817;-77
2021/03/16 07:15:09;;;;;;;45.25;24.77;;;;;;;3.43;83.86;100155.56;1774044;80;27537;-76
2021/03/16 07:17:57;;;;;;;38.92;24.12;;;;;;;3.46;84.19;100162.37;1771850;80;26488;-76
2021/03/16 07:20:43;;;;;;;40.30;23.47;;;;;;;3.50;84.19;100165.05;1739112;80;25761;-77
2021/03/16 07:23:49;;;;;;;35.40;22.13;;;;;;;3.59;84.35;100162.82;1775830;80;25780;-78
2021/03/16 07:26:36;;;;;;;41.73;23.32;;;;;;;3.68;84.40;100170.67;1748791;80;25691;-77
2021/03/16 07:29:22;;;;;;;39.63;23.60;;;;;;;3.78;84.57;100173.24;1759587;80;27535;-77
2021/03/16 07:32:10;;;;;;;32.03;19.35;;;;;;;3.84;84.47;100171.30;1755493;80;26445;-77
2021/03/16 07:35:00;;;;;;;31.15;18.60;;;;;;;3.90;84.66;100173.33;1740002;80;26538;-77
2021/03/16 07:37:49;;;;;;;31.95;17.75;;;;;;;3.92;84.75;100171.34;1754352;80;26042;-77
2021/03/16 07:40:36;;;;;;;29.23;18.57;;;;;;;3.95;84.68;100178.16;1775932;80;26367;-77
2021/03/16 07:43:38;;;;;;;28.67;17.45;;;;;;;3.98;84.76;100173.38;1749351;80;27607;-77
2021/03/16 07:46:23;;;;;;;27.62;17.70;;;;;;;4.03;84.79;100176.41;1773923;80;26228;-77
2021/03/16 07:49:13;;;;;;;32.45;17.37;;;;;;;4.08;84.84;100179.43;1746022;80;25764;-77
2021/03/16 07:51:59;;;;;;;32.55;18.92;;;;;;;4.12;84.77;100178.12;1773344;80;25773;-77
2021/03/16 07:54:50;;;;;;;29.02;17.73;;;;;;;4.18;85.19;100184.13;1730335;80;25936;-77
2021/03/16 07:57:36;;;;;;;28.20;16.67;;;;;;;4.27;85.06;100192.47;1753749;80;27609;-77
2021/03/16 08:00:30;;;;;;;25.57;16.55;;;;;;;4.33;84.84;100184.38;1758462;80;25755;-78
2021/03/16 08:03:24;;;;;;;25.68;15.40;;;;;;;4.38;84.95;100188.23;1751676;80;25818;-77
2021/03/16 08:06:25;;;;;;;28.32;16.95;;;;;;;4.48;85.01;100190.27;1731500;80;25628;-77
2021/03/16 08:09:22;;;;;;;31.48;17.00;;;;;;;4.57;84.90;100191.98;1754757;80;26246;-77
2021/03/16 08:12:28;;;;;;;26.87;16.35;;;;;;;4.62;84.65;100195.46;1772377;80;27358;-77
2021/03/16 08:15:17;;;;;;;29.57;18.48;;;;;;;4.66;84.29;100193.66;1747698;80;26329;-77
2021/03/16 08:18:03;;;;;;;33.38;19.52;;;;;;;4.74;84.47;100194.70;1753896;80;25875;-77
2021/03/16 08:20:48;;;;;;;32.50;19.55;;;;;;;4.82;84.53;100202.69;1772201;80;25758;-77
2021/03/16 08:23:37;;;;;;;34.40;20.75;;;;;;;4.93;84.41;100199.75;1772590;80;26539;-80
2021/03/16 08:26:23;;;;;;;34.40;21.00;;;;;;;5.02;84.00;100197.47;1774175;80;27518;-78
2021/03/16 08:29:09;;;;;;;31.87;19.82;;;;;;;5.09;83.88;100199.83;1730347;80;26338;-78
2021/03/16 08:31:58;;;;;;;30.68;20.52;;;;;;;5.17;83.76;100196.70;1737165;81;25819;-77
2021/03/16 08:34:44;;;;;;;32.60;19.67;;;;;;;5.24;83.67;100195.52;1763251;80;25876;-77
2021/03/16 08:37:36;;;;;;;34.98;19.70;;;;;;;5.32;83.72;100196.89;1775976;80;26312;-77
2021/03/16 08:40:24;;;;;;;32.60;18.40;;;;;;;5.41;83.35;100194.56;1755265;80;28111;-77
2021/03/16 08:43:12;;;;;;;31.93;18.67;;;;;;;5.48;83.38;100199.56;1737856;80;26401;-80
2021/03/16 08:45:58;;;;;;;32.38;19.37;;;;;;;5.54;82.48;100194.92;1743559;80;25767;-77
2021/03/16 08:48:46;;;;;;;37.20;21.90;;;;;;;5.59;82.44;100202.40;1775636;80;25817;-78
2021/03/16 08:51:33;;;;;;;32.95;20.48;;;;;;;5.62;82.31;100198.94;1739093;80;26095;-78
2021/03/16 08:54:27;;;;;;;35.95;20.80;;;;;;;5.66;82.13;100199.42;1709086;81;27552;-78
2021/03/16 08:57:22;;;;;;;34.20;21.17;;;;;;;5.66;81.93;100203.41;1697425;82;26031;-78
2021/03/16 09:00:10;;;;;;;37.55;21.15;;;;;;;5.69;81.83;100206.55;1713788;82;25773;-77
2021/03/16 09:02:55;;;;;;;37.85;22.22;;;;;;;5.74;81.40;100215.37;1708307;81;25763;-78
2021/03/16 09:05:42;;;;;;;38.67;22.15;;;;;;;5.74;81.38;100214.04;1741620;81;26071;-78
2021/03/16 09:08:28;;;;;;;41.15;23.27;;;;;;;5.76;81.20;100218.69;1718346;81;28225;-78
2021/03/16 09:11:17;;;;;;;34.98;20.12;;;;;;;5.79;81.04;100221.03;1711030;83;26104;-78
2021/03/16 09:14:19;;;;;;;37.38;21.68;;;;;;;5.87;80.86;100217.07;1701436;81;25926;-77
2021/03/16 09:17:06;;;;;;;31.55;19.55;;;;;;;5.94;80.80;100226.89;1727671;82;26504;-77
2021/03/16 09:19:51;;;;;;;30.80;19.05;;;;;;;6.04;80.68;100223.55;1732280;82;25890;-77
2021/03/16 09:22:38;;;;;;;28.20;17.27;;;;;;;6.10;80.36;100217.56;1713949;82;28433;-77
2021/03/16 09:25:33;;;;;;;26.82;17.57;;;;;;;6.18;80.00;100227.35;1688344;81;26417;-77
2021/03/16 09:28:22;;;;;;;28.65;18.05;;;;;;;6.25;80.14;100224.36;1703666;81;26386;-77
2021/03/16 09:31:07;;;;;;;27.10;17.80;;;;;;;6.37;80.02;100231.02;1726225;81;25398;-77
2021/03/16 09:33:53;;;;;;;31.68;18.65;;;;;;;6.48;79.57;100229.83;1726177;81;26217;-77
2021/03/16 09:36:39;;;;;;;27.50;16.23;;;;;;;6.58;79.36;100230.47;1689026;83;27541;-78
2021/03/16 09:39:16;;;;;;;22.20;13.83;;;;;;;6.76;78.19;100221.75;1826435;77;25790;-78
2021/03/16 09:41:59;;;;;;;23.15;14.65;;;;;;;6.82;77.54;100225.89;1799194;78;26389;-78
2021/03/16 09:44:40;;;;;;;26.77;16.75;;;;;;;6.90;77.31;100226.38;1767110;79;28426;-77
2021/03/16 09:47:09;;;;;;;27.85;17.27;;;;;;;7.00;76.99;100234.98;1782102;79;26355;-78
2021/03/16 09:49:42;;;;;;;28.27;17.60;;;;;;;7.08;76.99;100236.27;1774614;78;25808;-78
2021/03/16 09:52:11;;;;;;;26.17;16.97;;;;;;;7.13;76.91;100231.27;1800541;78;25776;-78
2021/03/16 09:54:45;;;;;;;25.10;16.60;;;;;;;7.24;77.36;100232.22;1728036;78;26092;-77
2021/03/16 09:57:16;;;;;;;26.97;16.37;;;;;;;7.35;76.76;100233.16;1741937;79;28504;-78
2021/03/16 09:59:46;;;;;;;24.67;16.35;;;;;;;7.42;76.40;100236.77;1726385;78;25846;-77
2021/03/16 10:02:13;;;;;;;27.55;16.02;;;;;;;7.49;76.52;100238.23;1801363;78;26442;-78
2021/03/16 10:04:51;;;;;;;25.82;14.23;;;;;;;7.52;74.72;100241.89;1733577;80;25882;-78
2021/03/16 10:07:31;;;;;;;24.32;15.63;;;;;;;7.55;73.34;100238.85;1801844;78;26494;-78
2021/03/16 10:10:15;;;;;;;28.55;17.73;;;;;;;7.52;73.79;100237.89;1799708;78;27329;-78
2021/03/16 10:12:58;;;;;;;24.40;16.75;;;;;;;7.49;73.79;100244.89;1793221;78;25792;-78
2021/03/16 10:15:33;;;;;;;28.02;18.05;;;;;;;7.46;73.06;100239.41;1745522;79;25827;-78
2021/03/16 10:18:03;;;;;;;29.35;19.15;;;;;;;7.41;73.49;100239.12;1772473;78;25833;-78
2021/03/16 10:20:35;;;;;;;28.25;18.35;;;;;;;7.39;73.52;100244.29;1797485;78;25913;-78
2021/03/16 10:23:06;;;;;;;29.30;19.65;;;;;;;7.36;72.89;100233.47;1781009;78;27601;-78
2021/03/16 10:25:35;;;;;;;30.72;19.05;;;;;;;7.35;73.37;100240.32;1760987;79;26216;-78
2021/03/16 10:28:09;;;;;;;27.85;18.10;;;;;;;7.35;73.11;100241.66;1748105;80;25812;-78
2021/03/16 10:30:45;;;;;;;26.25;18.00;;;;;;;7.34;72.53;100234.65;1746630;78;25742;-78
2021/03/16 10:33:13;;;;;;;28.83;18.00;;;;;;;7.31;72.62;100234.52;1797466;78;25653;-78
2021/03/16 10:35:43;;;;;;;27.60;19.25;;;;;;;7.35;73.18;100240.32;1729354;79;27714;-77
2021/03/16 10:38:11;;;;;;;27.93;18.67;;;;;;;7.38;72.82;100239.45;1768236;80;26066;-78
2021/03/16 10:40:38;;;;;;;27.42;17.75;;;;;;;7.41;72.62;100243.61;1753679;80;25850;-78
2021/03/16 10:43:05;;;;;;;27.48;16.70;;;;;;;7.42;72.05;100243.43;1802221;78;26097;-78
2021/03/16 10:45:33;;;;;;;23.45;16.48;;;;;;;7.43;71.62;100244.27;1747380;78;25735;-77
2021/03/16 10:48:00;;;;;;;28.45;17.25;;;;;;;7.40;71.04;100243.30;1753548;78;27534;-78
2021/03/16 10:50:28;;;;;;;23.10;14.45;;;;;;;7.39;71.05;100246.95;1800602;78;26223;-78
2021/03/16 10:52:55;;;;;;;21.82;14.93;;;;;;;7.40;71.25;100241.44;1792844;78;25770;-78
2021/03/16 10:55:23;;;;;;;20.25;14.45;;;;;;;7.44;71.02;100244.08;1736931;78;25802;-78
2021/03/16 10:57:50;;;;;;;24.60;15.50;;;;;;;7.50;70.65;100242.08;1747818;80;25562;-77
2021/03/16 11:00:18;;;;;;;23.52;16.75;;;;;;;7.58;70.02;100242.52;1788722;79;27308;-77
2021/03/16 11:02:46;;;;;;;22.90;15.30;;;;;;;7.65;70.61;100237.66;1797228;78;25859;-78
2021/03/16 11:05:14;;;;;;;23.22;14.95;;;;;;;7.78;70.96;100237.86;1749992;78;25788;-78
2021/03/16 11:07:42;;;;;;;21.55;15.20;;;;;;;7.94;70.55;100237.42;1750778;79;25733;-78
2021/03/16 11:10:12;;;;;;;22.73;16.32;;;;;;;8.06;69.07;100236.02;1787438;78;25799;-78
2021/03/16 11:12:39;;;;;;;22.00;14.53;;;;;;;8.13;69.68;100231.09;1794497;78;27583;-78
2021/03/16 11:15:08;;;;;;;21.62;14.47;;;;;;;8.29;69.36;100231.50;1768582;78;25724;-77
2021/03/16 11:17:36;;;;;;;26.95;16.15;;;;;;;8.39;69.25;100225.39;1749224;78;25848;-78
2021/03/16 11:20:06;;;;;;;21.23;14.80;;;;;;;8.53;67.65;100224.60;1764247;78;25867;-78
2021/03/16 11:22:33;;;;;;;23.38;16.67;;;;;;;8.70;68.97;100222.08;1772268;79;25770;-78
2021/03/16 11:25:01;;;;;;;20.85;14.70;;;;;;;8.84;68.67;100223.91;1758206;78;27520;-78
2021/03/16 11:27:28;;;;;;;20.77;14.15;;;;;;;9.00;68.20;100229.05;1743674;78;25375;-77
2021/03/16 11:29:55;;;;;;;18.75;13.65;;;;;;;9.12;67.92;100222.23;1794875;78;25924;-78
2021/03/16 11:32:23;;;;;;;20.77;13.40;;;;;;;9.24;67.14;100221.23;1790306;78;25779;-78
2021/03/16 11:35:10;;;;;;;17.57;10.65;;;;;;;9.20;65.67;100214.61;1768296;78;25714;-78
2021/03/16 11:37:56;;;;;;;16.82;11.78;;;;;;;9.12;62.45;100224.07;1771055;78;27643;-78
2021/03/16 11:40:43;;;;;;;15.05;12.45;;;;;;;8.94;64.53;100224.45;1797624;78;25871;-78
2021/03/16 11:43:28;;;;;;;15.23;11.20;;;;;;;8.81;63.00;100224.27;1802752;78;25828;-78
2021/03/16 11:46:14;;;;;;;17.70;12.05;;;;;;;8.67;63.20;100225.60;1753676;78;25835;-78
2021/03/16 11:49:00;;;;;;;20.75;12.75;;;;;;;8.55;63.30;100222.05;1775437;78;25894;-78
2021/03/16 11:51:46;;;;;;;21.37;13.50;;;;;;;8.47;64.00;100216.80;1797903;78;27423;-77
2021/03/16 11:54:32;;;;;;;21.90;13.65;;;;;;;8.43;63.48;100219.51;1789995;78;25666;-78
2021/03/16 11:57:17;;;;;;;20.32;11.83;;;;;;;8.38;64.76;100223.75;1760670;78;25838;-77
2021/03/16 12:00:06;;;;;;;20.00;12.75;;;;;;;8.34;64.16;100216.59;1755546;79;26115;-79
2021/03/16 12:02:52;;;;;;;15.90;12.07;;;;;;;8.33;64.80;100218.95;1790838;78;25769;-77
2021/03/16 12:05:38;;;;;;;18.95;12.05;;;;;;;8.36;64.44;100224.44;1792502;78;27568;-78
2021/03/16 12:08:23;;;;;;;15.50;10.10;;;;;;;8.36;64.54;100221.23;1759275;78;25849;-78
2021/03/16 12:11:10;;;;;;;23.65;12.40;;;;;;;8.36;63.71;100214.56;1752425;78;25807;-77
2021/03/16 12:13:55;;;;;;;15.50;10.58;;;;;;;8.36;63.88;100214.56;1722218;81;26441;-78
2021/03/16 12:16:41;;;;;;;19.62;11.15;;;;;;;8.39;63.69;100218.72;1728805;81;26579;-78
2021/03/16 12:19:27;;;;;;;15.28;10.75;;;;;;;8.34;63.75;100214.45;1717811;81;27527;-79
2021/03/16 12:22:13;;;;;;;16.85;12.07;;;;;;;8.33;63.61;100215.45;1718708;81;26159;-78
2021/03/16 12:24:59;;;;;;;16.37;11.95;;;;;;;8.28;63.52;100214.66;1708077;81;25906;-78
2021/03/16 12:27:45;;;;;;;16.82;11.65;;;;;;;8.26;63.57;100210.50;1730231;81;26526;-79